Terminal Aerodrome Forecast
Issued by NWS

Home | Current Version | Previous Version | Text Only | Print | Product List | Glossary On
Versions: 1 2 3 4 5 6 7 8 9 10 11 12 13
000
FTAK31 PAJN 192300
TAFAYA
TAF
PAYA 192337Z 2000/2024 08007KT P6SM SCT070
     FM200400 09008KT P6SM BKN070
     FM201100 09008KT P6SM VCSH BKN040
      AMD LTD TO CLD VIS AND WIND 2001/2010=

USA.gov is the U.S. government's official web portal to all federal, state and local government web resources and services.